sensor_id;sensor_type;location;lat;lon;timestamp;P1;durP1;ratioP1;P2;durP2;ratioP2
79670;SDS011;69137;50.878;8.050;2023-04-29T00:01:06;8.88;;;6.45;;
79670;SDS011;69137;50.878;8.050;2023-04-29T00:03:31;8.10;;;5.25;;
79670;SDS011;69137;50.878;8.050;2023-04-29T00:05:57;8.10;;;5.38;;
79670;SDS011;69137;50.878;8.050;2023-04-29T00:08:23;7.15;;;4.75;;
79670;SDS011;69137;50.878;8.050;2023-04-29T00:10:49;5.78;;;4.40;;
79670;SDS011;69137;50.878;8.050;2023-04-29T00:13:14;6.60;;;5.00;;
79670;SDS011;69137;50.878;8.050;2023-04-29T00:15:40;6.88;;;5.00;;
79670;SDS011;69137;50.878;8.050;2023-04-29T00:18:06;6.05;;;4.57;;
79670;SDS011;69137;50.878;8.050;2023-04-29T00:20:32;9.05;;;5.32;;
79670;SDS011;69137;50.878;8.050;2023-04-29T00:22:58;6.50;;;4.95;;
79670;SDS011;69137;50.878;8.050;2023-04-29T00:25:23;9.45;;;4.90;;
79670;SDS011;69137;50.878;8.050;2023-04-29T00:27:49;7.40;;;5.32;;
79670;SDS011;69137;50.878;8.050;2023-04-29T00:30:14;7.75;;;4.93;;
79670;SDS011;69137;50.878;8.050;2023-04-29T00:32:40;7.15;;;5.63;;
79670;SDS011;69137;50.878;8.050;2023-04-29T00:35:06;7.70;;;5.75;;
79670;SDS011;69137;50.878;8.050;2023-04-29T00:37:31;7.00;;;5.05;;
79670;SDS011;69137;50.878;8.050;2023-04-29T00:39:57;7.65;;;5.47;;
79670;SDS011;69137;50.878;8.050;2023-04-29T00:42:23;8.90;;;5.43;;
79670;SDS011;69137;50.878;8.050;2023-04-29T00:44:49;7.28;;;5.68;;
79670;SDS011;69137;50.878;8.050;2023-04-29T00:47:15;8.93;;;6.65;;
79670;SDS011;69137;50.878;8.050;2023-04-29T00:49:41;8.43;;;6.13;;
79670;SDS011;69137;50.878;8.050;2023-04-29T00:52:10;10.18;;;6.50;;
79670;SDS011;69137;50.878;8.050;2023-04-29T00:54:36;7.57;;;5.80;;
79670;SDS011;69137;50.878;8.050;2023-04-29T00:57:03;8.55;;;5.75;;
79670;SDS011;69137;50.878;8.050;2023-04-29T00:59:30;8.07;;;6.13;;
79670;SDS011;69137;50.878;8.050;2023-04-29T01:02:02;8.25;;;6.07;;
79670;SDS011;69137;50.878;8.050;2023-04-29T01:04:29;8.35;;;6.43;;
79670;SDS011;69137;50.878;8.050;2023-04-29T01:15:28;10.20;;;8.20;;
79670;SDS011;69137;50.878;8.050;2023-04-29T01:18:03;10.82;;;7.63;;
79670;SDS011;69137;50.878;8.050;2023-04-29T01:20:31;11.80;;;8.18;;
79670;SDS011;69137;50.878;8.050;2023-04-29T01:22:57;13.32;;;8.23;;
79670;SDS011;69137;50.878;8.050;2023-04-29T01:25:22;13.10;;;8.38;;
79670;SDS011;69137;50.878;8.050;2023-04-29T01:30:27;14.73;;;8.98;;
79670;SDS011;69137;50.878;8.050;2023-04-29T01:35:52;13.85;;;8.13;;
79670;SDS011;69137;50.878;8.050;2023-04-29T01:43:55;12.98;;;7.38;;
79670;SDS011;69137;50.878;8.050;2023-04-29T01:46:22;11.68;;;7.55;;
79670;SDS011;69137;50.878;8.050;2023-04-29T01:48:48;11.40;;;6.82;;
79670;SDS011;69137;50.878;8.050;2023-04-29T01:51:17;12.55;;;8.27;;
79670;SDS011;69137;50.878;8.050;2023-04-29T01:53:43;13.82;;;7.80;;
79670;SDS011;69137;50.878;8.050;2023-04-29T01:56:08;15.43;;;8.30;;
79670;SDS011;69137;50.878;8.050;2023-04-29T01:58:33;12.73;;;8.98;;
79670;SDS011;69137;50.878;8.050;2023-04-29T02:00:59;12.82;;;7.88;;
79670;SDS011;69137;50.878;8.050;2023-04-29T02:03:24;17.05;;;9.32;;
79670;SDS011;69137;50.878;8.050;2023-04-29T02:05:50;12.90;;;7.38;;
79670;SDS011;69137;50.878;8.050;2023-04-29T02:08:16;11.20;;;6.85;;
79670;SDS011;69137;50.878;8.050;2023-04-29T02:10:50;11.93;;;7.38;;
79670;SDS011;69137;50.878;8.050;2023-04-29T02:13:16;11.25;;;7.53;;
79670;SDS011;69137;50.878;8.050;2023-04-29T02:15:42;12.43;;;7.43;;
79670;SDS011;69137;50.878;8.050;2023-04-29T02:18:07;13.48;;;7.50;;
79670;SDS011;69137;50.878;8.050;2023-04-29T02:20:32;13.23;;;7.38;;
79670;SDS011;69137;50.878;8.050;2023-04-29T02:22:58;13.23;;;7.10;;
79670;SDS011;69137;50.878;8.050;2023-04-29T02:25:23;14.88;;;6.07;;
79670;SDS011;69137;50.878;8.050;2023-04-29T02:27:49;10.98;;;5.85;;
79670;SDS011;69137;50.878;8.050;2023-04-29T02:30:15;11.68;;;6.60;;
79670;SDS011;69137;50.878;8.050;2023-04-29T02:32:41;11.80;;;7.20;;
79670;SDS011;69137;50.878;8.050;2023-04-29T02:35:06;12.15;;;7.45;;
79670;SDS011;69137;50.878;8.050;2023-04-29T02:37:32;10.27;;;6.45;;
79670;SDS011;69137;50.878;8.050;2023-04-29T02:39:58;12.55;;;7.07;;
79670;SDS011;69137;50.878;8.050;2023-04-29T02:42:23;12.70;;;7.07;;
79670;SDS011;69137;50.878;8.050;2023-04-29T02:44:49;12.50;;;6.47;;
79670;SDS011;69137;50.878;8.050;2023-04-29T02:47:14;9.30;;;5.90;;
79670;SDS011;69137;50.878;8.050;2023-04-29T02:49:40;11.23;;;6.10;;
79670;SDS011;69137;50.878;8.050;2023-04-29T02:52:05;11.35;;;6.43;;
79670;SDS011;69137;50.878;8.050;2023-04-29T02:54:31;10.68;;;6.53;;
79670;SDS011;69137;50.878;8.050;2023-04-29T02:56:56;10.00;;;6.55;;
79670;SDS011;69137;50.878;8.050;2023-04-29T02:59:22;10.90;;;6.72;;
79670;SDS011;69137;50.878;8.050;2023-04-29T03:01:48;12.43;;;6.68;;
79670;SDS011;69137;50.878;8.050;2023-04-29T03:04:14;12.10;;;6.85;;
79670;SDS011;69137;50.878;8.050;2023-04-29T03:06:39;11.20;;;6.63;;
79670;SDS011;69137;50.878;8.050;2023-04-29T03:09:05;11.80;;;6.97;;
79670;SDS011;69137;50.878;8.050;2023-04-29T03:11:31;10.23;;;6.13;;
79670;SDS011;69137;50.878;8.050;2023-04-29T03:13:56;13.55;;;7.70;;
79670;SDS011;69137;50.878;8.050;2023-04-29T03:16:22;12.32;;;7.82;;
79670;SDS011;69137;50.878;8.050;2023-04-29T03:18:48;11.85;;;7.20;;
79670;SDS011;69137;50.878;8.050;2023-04-29T03:21:13;11.85;;;7.35;;
79670;SDS011;69137;50.878;8.050;2023-04-29T03:23:39;12.50;;;7.30;;
79670;SDS011;69137;50.878;8.050;2023-04-29T03:26:04;12.02;;;7.00;;
79670;SDS011;69137;50.878;8.050;2023-04-29T03:28:30;11.75;;;7.05;;
79670;SDS011;69137;50.878;8.050;2023-04-29T03:30:55;11.18;;;7.18;;
79670;SDS011;69137;50.878;8.050;2023-04-29T03:33:22;14.35;;;8.25;;
79670;SDS011;69137;50.878;8.050;2023-04-29T03:35:48;12.35;;;7.80;;
79670;SDS011;69137;50.878;8.050;2023-04-29T03:38:13;13.02;;;7.70;;
79670;SDS011;69137;50.878;8.050;2023-04-29T03:40:39;13.82;;;7.95;;
79670;SDS011;69137;50.878;8.050;2023-04-29T03:43:04;13.45;;;7.82;;
79670;SDS011;69137;50.878;8.050;2023-04-29T03:45:30;15.40;;;8.50;;
79670;SDS011;69137;50.878;8.050;2023-04-29T03:47:56;15.85;;;8.32;;
79670;SDS011;69137;50.878;8.050;2023-04-29T03:50:22;12.52;;;7.57;;
79670;SDS011;69137;50.878;8.050;2023-04-29T03:52:48;13.57;;;7.43;;
79670;SDS011;69137;50.878;8.050;2023-04-29T03:55:13;12.10;;;7.32;;
79670;SDS011;69137;50.878;8.050;2023-04-29T03:57:38;13.20;;;7.18;;
79670;SDS011;69137;50.878;8.050;2023-04-29T04:00:04;11.55;;;6.18;;
79670;SDS011;69137;50.878;8.050;2023-04-29T04:02:30;13.55;;;7.28;;
79670;SDS011;69137;50.878;8.050;2023-04-29T04:04:55;13.68;;;7.97;;
79670;SDS011;69137;50.878;8.050;2023-04-29T04:07:22;10.80;;;6.85;;
79670;SDS011;69137;50.878;8.050;2023-04-29T04:09:48;13.13;;;7.85;;
79670;SDS011;69137;50.878;8.050;2023-04-29T04:12:13;13.65;;;7.38;;
79670;SDS011;69137;50.878;8.050;2023-04-29T04:14:39;13.48;;;8.13;;
79670;SDS011;69137;50.878;8.050;2023-04-29T04:17:04;15.13;;;8.18;;
79670;SDS011;69137;50.878;8.050;2023-04-29T04:19:29;16.73;;;8.70;;
79670;SDS011;69137;50.878;8.050;2023-04-29T04:21:55;18.38;;;8.45;;
79670;SDS011;69137;50.878;8.050;2023-04-29T04:24:21;17.70;;;9.20;;
79670;SDS011;69137;50.878;8.050;2023-04-29T04:26:47;13.77;;;8.73;;
79670;SDS011;69137;50.878;8.050;2023-04-29T04:29:12;18.88;;;9.57;;
79670;SDS011;69137;50.878;8.050;2023-04-29T04:31:38;15.73;;;9.07;;
79670;SDS011;69137;50.878;8.050;2023-04-29T04:34:03;17.95;;;9.65;;
79670;SDS011;69137;50.878;8.050;2023-04-29T04:36:29;19.77;;;10.05;;
79670;SDS011;69137;50.878;8.050;2023-04-29T04:38:55;17.20;;;10.95;;
79670;SDS011;69137;50.878;8.050;2023-04-29T04:41:20;16.95;;;10.27;;
79670;SDS011;69137;50.878;8.050;2023-04-29T04:43:45;16.50;;;9.98;;
79670;SDS011;69137;50.878;8.050;2023-04-29T04:46:12;18.25;;;9.75;;
79670;SDS011;69137;50.878;8.050;2023-04-29T04:48:38;21.52;;;10.98;;
79670;SDS011;69137;50.878;8.050;2023-04-29T04:51:11;15.90;;;9.38;;
79670;SDS011;69137;50.878;8.050;2023-04-29T04:53:37;17.95;;;9.82;;
79670;SDS011;69137;50.878;8.050;2023-04-29T04:56:03;19.42;;;10.90;;
79670;SDS011;69137;50.878;8.050;2023-04-29T04:58:30;20.35;;;10.70;;
79670;SDS011;69137;50.878;8.050;2023-04-29T05:00:56;19.60;;;10.73;;
79670;SDS011;69137;50.878;8.050;2023-04-29T05:03:22;18.90;;;10.10;;
79670;SDS011;69137;50.878;8.050;2023-04-29T05:05:58;17.90;;;9.55;;
79670;SDS011;69137;50.878;8.050;2023-04-29T05:08:24;17.75;;;10.43;;
79670;SDS011;69137;50.878;8.050;2023-04-29T05:10:50;18.00;;;9.88;;
79670;SDS011;69137;50.878;8.050;2023-04-29T05:13:16;22.65;;;12.52;;
79670;SDS011;69137;50.878;8.050;2023-04-29T05:15:42;20.15;;;10.38;;
79670;SDS011;69137;50.878;8.050;2023-04-29T05:18:08;21.52;;;11.65;;
79670;SDS011;69137;50.878;8.050;2023-04-29T05:20:34;20.85;;;11.82;;
79670;SDS011;69137;50.878;8.050;2023-04-29T05:23:00;19.13;;;10.60;;
79670;SDS011;69137;50.878;8.050;2023-04-29T05:25:26;22.05;;;12.98;;
79670;SDS011;69137;50.878;8.050;2023-04-29T05:27:51;21.85;;;12.32;;
79670;SDS011;69137;50.878;8.050;2023-04-29T05:30:17;26.48;;;13.38;;
79670;SDS011;69137;50.878;8.050;2023-04-29T05:32:43;26.65;;;14.57;;
79670;SDS011;69137;50.878;8.050;2023-04-29T05:35:13;28.63;;;14.95;;
79670;SDS011;69137;50.878;8.050;2023-04-29T05:37:38;29.75;;;14.70;;
79670;SDS011;69137;50.878;8.050;2023-04-29T05:40:04;27.15;;;15.00;;
79670;SDS011;69137;50.878;8.050;2023-04-29T05:42:30;24.90;;;13.45;;
79670;SDS011;69137;50.878;8.050;2023-04-29T05:44:56;24.75;;;14.40;;
79670;SDS011;69137;50.878;8.050;2023-04-29T05:47:21;26.20;;;13.82;;
79670;SDS011;69137;50.878;8.050;2023-04-29T05:49:47;28.75;;;14.75;;
79670;SDS011;69137;50.878;8.050;2023-04-29T05:52:13;24.95;;;14.18;;
79670;SDS011;69137;50.878;8.050;2023-04-29T05:54:38;28.60;;;15.13;;
79670;SDS011;69137;50.878;8.050;2023-04-29T05:57:03;29.08;;;15.45;;
79670;SDS011;69137;50.878;8.050;2023-04-29T05:59:29;26.65;;;13.63;;
79670;SDS011;69137;50.878;8.050;2023-04-29T06:01:56;26.33;;;13.35;;
79670;SDS011;69137;50.878;8.050;2023-04-29T06:04:22;22.08;;;12.23;;
79670;SDS011;69137;50.878;8.050;2023-04-29T06:06:49;24.13;;;13.98;;
79670;SDS011;69137;50.878;8.050;2023-04-29T06:09:15;27.15;;;14.18;;
79670;SDS011;69137;50.878;8.050;2023-04-29T06:11:40;27.08;;;13.38;;
79670;SDS011;69137;50.878;8.050;2023-04-29T06:14:06;24.23;;;12.77;;
79670;SDS011;69137;50.878;8.050;2023-04-29T06:16:32;26.02;;;12.00;;
79670;SDS011;69137;50.878;8.050;2023-04-29T06:18:57;25.05;;;13.88;;
79670;SDS011;69137;50.878;8.050;2023-04-29T06:21:23;28.00;;;14.48;;
79670;SDS011;69137;50.878;8.050;2023-04-29T06:23:49;30.45;;;14.73;;
79670;SDS011;69137;50.878;8.050;2023-04-29T06:26:14;21.60;;;12.48;;
79670;SDS011;69137;50.878;8.050;2023-04-29T06:28:40;22.25;;;12.05;;
79670;SDS011;69137;50.878;8.050;2023-04-29T06:31:05;16.20;;;9.73;;
79670;SDS011;69137;50.878;8.050;2023-04-29T06:33:31;19.30;;;10.52;;
79670;SDS011;69137;50.878;8.050;2023-04-29T06:35:58;16.75;;;10.18;;
79670;SDS011;69137;50.878;8.050;2023-04-29T06:38:23;19.85;;;10.85;;
79670;SDS011;69137;50.878;8.050;2023-04-29T06:40:49;14.38;;;7.30;;
79670;SDS011;69137;50.878;8.050;2023-04-29T06:43:14;14.25;;;6.35;;
79670;SDS011;69137;50.878;8.050;2023-04-29T06:45:39;14.40;;;7.03;;
79670;SDS011;69137;50.878;8.050;2023-04-29T06:48:05;11.05;;;7.00;;
79670;SDS011;69137;50.878;8.050;2023-04-29T06:50:30;10.30;;;4.75;;
79670;SDS011;69137;50.878;8.050;2023-04-29T06:52:56;8.63;;;5.10;;
79670;SDS011;69137;50.878;8.050;2023-04-29T06:55:21;9.90;;;5.13;;
79670;SDS011;69137;50.878;8.050;2023-04-29T06:57:47;8.73;;;5.35;;
79670;SDS011;69137;50.878;8.050;2023-04-29T07:00:12;7.65;;;4.90;;
79670;SDS011;69137;50.878;8.050;2023-04-29T07:02:39;7.38;;;3.95;;
79670;SDS011;69137;50.878;8.050;2023-04-29T07:05:05;6.88;;;4.22;;
79670;SDS011;69137;50.878;8.050;2023-04-29T07:07:31;7.63;;;4.07;;
79670;SDS011;69137;50.878;8.050;2023-04-29T07:09:56;7.47;;;4.80;;
79670;SDS011;69137;50.878;8.050;2023-04-29T07:12:22;6.85;;;4.38;;
79670;SDS011;69137;50.878;8.050;2023-04-29T07:14:47;5.95;;;4.40;;
79670;SDS011;69137;50.878;8.050;2023-04-29T07:17:12;6.18;;;3.90;;
79670;SDS011;69137;50.878;8.050;2023-04-29T07:19:38;10.18;;;4.50;;
79670;SDS011;69137;50.878;8.050;2023-04-29T07:22:03;5.50;;;3.13;;
79670;SDS011;69137;50.878;8.050;2023-04-29T07:24:29;10.57;;;3.75;;
79670;SDS011;69137;50.878;8.050;2023-04-29T07:26:54;6.50;;;3.90;;
79670;SDS011;69137;50.878;8.050;2023-04-29T07:29:20;8.43;;;4.35;;
79670;SDS011;69137;50.878;8.050;2023-04-29T07:31:45;7.07;;;4.47;;
79670;SDS011;69137;50.878;8.050;2023-04-29T07:34:11;6.53;;;4.03;;
79670;SDS011;69137;50.878;8.050;2023-04-29T07:36:36;6.10;;;4.07;;
79670;SDS011;69137;50.878;8.050;2023-04-29T07:39:02;4.32;;;3.28;;
79670;SDS011;69137;50.878;8.050;2023-04-29T07:41:27;6.88;;;4.60;;
79670;SDS011;69137;50.878;8.050;2023-04-29T07:43:53;5.55;;;3.90;;
79670;SDS011;69137;50.878;8.050;2023-04-29T07:46:18;7.18;;;4.70;;
79670;SDS011;69137;50.878;8.050;2023-04-29T07:48:44;5.75;;;3.70;;
79670;SDS011;69137;50.878;8.050;2023-04-29T07:51:13;6.53;;;4.03;;
79670;SDS011;69137;50.878;8.050;2023-04-29T07:53:39;6.80;;;4.05;;
79670;SDS011;69137;50.878;8.050;2023-04-29T07:56:05;7.47;;;4.00;;
79670;SDS011;69137;50.878;8.050;2023-04-29T07:58:32;6.93;;;4.93;;
79670;SDS011;69137;50.878;8.050;2023-04-29T08:01:07;12.18;;;4.75;;
79670;SDS011;69137;50.878;8.050;2023-04-29T08:03:34;5.55;;;3.85;;
79670;SDS011;69137;50.878;8.050;2023-04-29T08:06:02;6.40;;;4.47;;
79670;SDS011;69137;50.878;8.050;2023-04-29T08:08:29;4.90;;;3.60;;
79670;SDS011;69137;50.878;8.050;2023-04-29T08:10:55;6.93;;;4.00;;
79670;SDS011;69137;50.878;8.050;2023-04-29T08:13:20;5.38;;;3.95;;
79670;SDS011;69137;50.878;8.050;2023-04-29T08:15:46;7.30;;;3.75;;
79670;SDS011;69137;50.878;8.050;2023-04-29T08:18:11;4.35;;;3.47;;
79670;SDS011;69137;50.878;8.050;2023-04-29T08:20:37;5.95;;;4.28;;
79670;SDS011;69137;50.878;8.050;2023-04-29T08:23:02;5.97;;;3.80;;
79670;SDS011;69137;50.878;8.050;2023-04-29T08:25:28;6.28;;;3.72;;
79670;SDS011;69137;50.878;8.050;2023-04-29T08:27:54;5.45;;;3.92;;
79670;SDS011;69137;50.878;8.050;2023-04-29T08:30:20;6.85;;;3.92;;
79670;SDS011;69137;50.878;8.050;2023-04-29T08:32:45;5.25;;;3.65;;
79670;SDS011;69137;50.878;8.050;2023-04-29T08:35:11;10.85;;;4.50;;
79670;SDS011;69137;50.878;8.050;2023-04-29T08:37:36;5.25;;;3.63;;
79670;SDS011;69137;50.878;8.050;2023-04-29T08:40:02;6.07;;;4.00;;
79670;SDS011;69137;50.878;8.050;2023-04-29T08:42:32;6.28;;;4.03;;
79670;SDS011;69137;50.878;8.050;2023-04-29T08:45:00;6.38;;;4.40;;
79670;SDS011;69137;50.878;8.050;2023-04-29T08:47:30;6.55;;;4.60;;
79670;SDS011;69137;50.878;8.050;2023-04-29T08:50:03;7.40;;;5.03;;
79670;SDS011;69137;50.878;8.050;2023-04-29T08:52:30;9.52;;;5.95;;
79670;SDS011;69137;50.878;8.050;2023-04-29T08:54:56;10.80;;;5.93;;
79670;SDS011;69137;50.878;8.050;2023-04-29T08:57:24;10.77;;;6.93;;
79670;SDS011;69137;50.878;8.050;2023-04-29T08:59:50;14.00;;;7.30;;
79670;SDS011;69137;50.878;8.050;2023-04-29T09:02:16;12.48;;;7.53;;
79670;SDS011;69137;50.878;8.050;2023-04-29T09:04:46;15.90;;;9.13;;
79670;SDS011;69137;50.878;8.050;2023-04-29T09:07:19;14.15;;;8.20;;
79670;SDS011;69137;50.878;8.050;2023-04-29T09:09:46;14.88;;;8.13;;
79670;SDS011;69137;50.878;8.050;2023-04-29T09:12:13;16.00;;;8.35;;
79670;SDS011;69137;50.878;8.050;2023-04-29T09:14:38;18.02;;;9.15;;
79670;SDS011;69137;50.878;8.050;2023-04-29T09:17:04;16.73;;;8.35;;
79670;SDS011;69137;50.878;8.050;2023-04-29T09:19:31;18.00;;;9.50;;
79670;SDS011;69137;50.878;8.050;2023-04-29T09:21:58;18.08;;;8.43;;
79670;SDS011;69137;50.878;8.050;2023-04-29T09:24:27;19.27;;;10.20;;
79670;SDS011;69137;50.878;8.050;2023-04-29T09:26:55;19.88;;;11.27;;
79670;SDS011;69137;50.878;8.050;2023-04-29T09:29:21;21.60;;;12.15;;
79670;SDS011;69137;50.878;8.050;2023-04-29T09:31:47;19.35;;;12.25;;
79670;SDS011;69137;50.878;8.050;2023-04-29T09:34:13;22.05;;;11.48;;
79670;SDS011;69137;50.878;8.050;2023-04-29T09:39:12;21.48;;;12.07;;
79670;SDS011;69137;50.878;8.050;2023-04-29T09:44:19;20.63;;;11.73;;
79670;SDS011;69137;50.878;8.050;2023-04-29T09:46:54;21.45;;;11.85;;
79670;SDS011;69137;50.878;8.050;2023-04-29T09:49:26;21.92;;;11.20;;
79670;SDS011;69137;50.878;8.050;2023-04-29T09:54:21;21.05;;;11.50;;
79670;SDS011;69137;50.878;8.050;2023-04-29T09:56:49;25.05;;;11.95;;
79670;SDS011;69137;50.878;8.050;2023-04-29T09:59:16;24.80;;;13.20;;
79670;SDS011;69137;50.878;8.050;2023-04-29T10:01:47;21.23;;;11.50;;
79670;SDS011;69137;50.878;8.050;2023-04-29T10:04:13;20.60;;;11.70;;
79670;SDS011;69137;50.878;8.050;2023-04-29T10:06:40;28.80;;;12.55;;
79670;SDS011;69137;50.878;8.050;2023-04-29T10:09:07;23.80;;;12.80;;
79670;SDS011;69137;50.878;8.050;2023-04-29T10:11:37;20.83;;;11.00;;
79670;SDS011;69137;50.878;8.050;2023-04-29T10:14:04;22.42;;;10.55;;
79670;SDS011;69137;50.878;8.050;2023-04-29T10:16:33;19.13;;;10.23;;
79670;SDS011;69137;50.878;8.050;2023-04-29T10:19:05;13.90;;;8.82;;
79670;SDS011;69137;50.878;8.050;2023-04-29T10:21:36;17.02;;;9.05;;
79670;SDS011;69137;50.878;8.050;2023-04-29T10:24:02;15.38;;;8.68;;
79670;SDS011;69137;50.878;8.050;2023-04-29T10:26:28;15.27;;;9.30;;
79670;SDS011;69137;50.878;8.050;2023-04-29T10:28:56;14.98;;;8.77;;
79670;SDS011;69137;50.878;8.050;2023-04-29T10:31:27;14.55;;;8.88;;
79670;SDS011;69137;50.878;8.050;2023-04-29T10:33:57;14.38;;;8.18;;
79670;SDS011;69137;50.878;8.050;2023-04-29T10:36:26;15.32;;;8.60;;
79670;SDS011;69137;50.878;8.050;2023-04-29T10:38:54;11.10;;;7.18;;
79670;SDS011;69137;50.878;8.050;2023-04-29T10:41:27;15.77;;;7.60;;
79670;SDS011;69137;50.878;8.050;2023-04-29T10:43:57;12.63;;;6.90;;
79670;SDS011;69137;50.878;8.050;2023-04-29T10:46:26;13.70;;;6.80;;
79670;SDS011;69137;50.878;8.050;2023-04-29T10:51:34;11.77;;;6.40;;
79670;SDS011;69137;50.878;8.050;2023-04-29T10:54:07;12.52;;;7.20;;
79670;SDS011;69137;50.878;8.050;2023-04-29T10:56:36;11.32;;;6.88;;
79670;SDS011;69137;50.878;8.050;2023-04-29T10:59:03;10.68;;;6.55;;
79670;SDS011;69137;50.878;8.050;2023-04-29T11:01:45;10.15;;;6.18;;
79670;SDS011;69137;50.878;8.050;2023-04-29T11:04:20;10.77;;;5.22;;
79670;SDS011;69137;50.878;8.050;2023-04-29T11:06:50;10.80;;;6.78;;
79670;SDS011;69137;50.878;8.050;2023-04-29T11:09:23;10.77;;;5.75;;
79670;SDS011;69137;50.878;8.050;2023-04-29T11:12:03;8.77;;;5.00;;
79670;SDS011;69137;50.878;8.050;2023-04-29T11:17:00;9.93;;;5.35;;
79670;SDS011;69137;50.878;8.050;2023-04-29T11:19:35;8.15;;;5.40;;
79670;SDS011;69137;50.878;8.050;2023-04-29T11:24:46;9.65;;;5.68;;
79670;SDS011;69137;50.878;8.050;2023-04-29T11:27:14;7.43;;;4.55;;
79670;SDS011;69137;50.878;8.050;2023-04-29T11:29:39;5.35;;;3.85;;
79670;SDS011;69137;50.878;8.050;2023-04-29T11:32:06;6.63;;;4.40;;
79670;SDS011;69137;50.878;8.050;2023-04-29T11:34:32;8.38;;;4.68;;
79670;SDS011;69137;50.878;8.050;2023-04-29T11:36:57;7.15;;;4.50;;
79670;SDS011;69137;50.878;8.050;2023-04-29T11:39:23;7.68;;;4.40;;
79670;SDS011;69137;50.878;8.050;2023-04-29T11:41:48;6.80;;;4.22;;
79670;SDS011;69137;50.878;8.050;2023-04-29T11:44:14;7.90;;;5.18;;
79670;SDS011;69137;50.878;8.050;2023-04-29T11:46:46;8.23;;;4.65;;
79670;SDS011;69137;50.878;8.050;2023-04-29T11:49:12;7.85;;;4.97;;
79670;SDS011;69137;50.878;8.050;2023-04-29T11:51:37;6.78;;;4.63;;
79670;SDS011;69137;50.878;8.050;2023-04-29T11:54:03;9.38;;;5.28;;
79670;SDS011;69137;50.878;8.050;2023-04-29T11:56:28;8.68;;;5.50;;
79670;SDS011;69137;50.878;8.050;2023-04-29T11:58:54;9.18;;;5.75;;
79670;SDS011;69137;50.878;8.050;2023-04-29T12:01:20;8.60;;;5.03;;
79670;SDS011;69137;50.878;8.050;2023-04-29T12:03:47;7.95;;;5.45;;
79670;SDS011;69137;50.878;8.050;2023-04-29T12:06:14;10.20;;;5.43;;
79670;SDS011;69137;50.878;8.050;2023-04-29T12:08:39;9.80;;;5.80;;
79670;SDS011;69137;50.878;8.050;2023-04-29T12:11:05;9.75;;;5.55;;
79670;SDS011;69137;50.878;8.050;2023-04-29T12:13:31;8.23;;;5.57;;
79670;SDS011;69137;50.878;8.050;2023-04-29T12:16:00;10.10;;;6.13;;
79670;SDS011;69137;50.878;8.050;2023-04-29T12:18:26;11.05;;;5.70;;
79670;SDS011;69137;50.878;8.050;2023-04-29T12:20:53;8.48;;;5.72;;
79670;SDS011;69137;50.878;8.050;2023-04-29T12:23:20;10.00;;;5.70;;
79670;SDS011;69137;50.878;8.050;2023-04-29T12:25:53;11.20;;;6.50;;
79670;SDS011;69137;50.878;8.050;2023-04-29T12:30:46;10.20;;;5.60;;
79670;SDS011;69137;50.878;8.050;2023-04-29T12:33:19;8.73;;;5.47;;
79670;SDS011;69137;50.878;8.050;2023-04-29T12:35:52;10.98;;;6.93;;
79670;SDS011;69137;50.878;8.050;2023-04-29T12:38:23;10.70;;;6.53;;
79670;SDS011;69137;50.878;8.050;2023-04-29T12:40:51;12.05;;;7.97;;
79670;SDS011;69137;50.878;8.050;2023-04-29T12:43:17;11.18;;;7.63;;
79670;SDS011;69137;50.878;8.050;2023-04-29T12:45:45;11.85;;;7.68;;
79670;SDS011;69137;50.878;8.050;2023-04-29T12:48:11;12.32;;;7.18;;
79670;SDS011;69137;50.878;8.050;2023-04-29T12:50:38;9.20;;;6.13;;
79670;SDS011;69137;50.878;8.050;2023-04-29T12:53:04;10.10;;;6.20;;
79670;SDS011;69137;50.878;8.050;2023-04-29T12:55:34;11.27;;;6.45;;
79670;SDS011;69137;50.878;8.050;2023-04-29T12:58:01;11.15;;;6.88;;
79670;SDS011;69137;50.878;8.050;2023-04-29T13:00:28;9.30;;;5.85;;
79670;SDS011;69137;50.878;8.050;2023-04-29T13:02:53;9.57;;;6.35;;
79670;SDS011;69137;50.878;8.050;2023-04-29T13:05:19;8.18;;;5.70;;
79670;SDS011;69137;50.878;8.050;2023-04-29T13:07:46;10.65;;;6.85;;
79670;SDS011;69137;50.878;8.050;2023-04-29T13:10:11;12.35;;;7.65;;
79670;SDS011;69137;50.878;8.050;2023-04-29T13:12:37;10.93;;;6.80;;
79670;SDS011;69137;50.878;8.050;2023-04-29T13:15:04;11.38;;;6.70;;
79670;SDS011;69137;50.878;8.050;2023-04-29T13:17:31;10.32;;;6.43;;
79670;SDS011;69137;50.878;8.050;2023-04-29T13:19:57;9.50;;;6.88;;
79670;SDS011;69137;50.878;8.050;2023-04-29T13:22:22;11.88;;;6.80;;
79670;SDS011;69137;50.878;8.050;2023-04-29T13:24:48;9.75;;;6.25;;
79670;SDS011;69137;50.878;8.050;2023-04-29T13:27:14;12.35;;;6.75;;
79670;SDS011;69137;50.878;8.050;2023-04-29T13:29:39;11.38;;;6.88;;
79670;SDS011;69137;50.878;8.050;2023-04-29T13:32:04;10.27;;;6.55;;
79670;SDS011;69137;50.878;8.050;2023-04-29T13:34:30;10.27;;;6.60;;
79670;SDS011;69137;50.878;8.050;2023-04-29T13:36:55;9.80;;;6.60;;
79670;SDS011;69137;50.878;8.050;2023-04-29T13:39:21;10.95;;;5.95;;
79670;SDS011;69137;50.878;8.050;2023-04-29T13:41:47;9.48;;;6.22;;
79670;SDS011;69137;50.878;8.050;2023-04-29T13:44:13;11.27;;;7.07;;
79670;SDS011;69137;50.878;8.050;2023-04-29T13:46:38;11.63;;;6.97;;
79670;SDS011;69137;50.878;8.050;2023-04-29T13:49:04;13.13;;;7.75;;
79670;SDS011;69137;50.878;8.050;2023-04-29T13:51:29;11.60;;;7.47;;
79670;SDS011;69137;50.878;8.050;2023-04-29T13:53:56;14.57;;;8.68;;
79670;SDS011;69137;50.878;8.050;2023-04-29T13:56:21;14.43;;;9.32;;
79670;SDS011;69137;50.878;8.050;2023-04-29T13:58:49;12.82;;;8.18;;
79670;SDS011;69137;50.878;8.050;2023-04-29T14:01:15;13.98;;;9.40;;
79670;SDS011;69137;50.878;8.050;2023-04-29T14:03:41;14.30;;;8.93;;
79670;SDS011;69137;50.878;8.050;2023-04-29T14:06:07;14.27;;;8.73;;
79670;SDS011;69137;50.878;8.050;2023-04-29T14:08:33;15.75;;;9.98;;
79670;SDS011;69137;50.878;8.050;2023-04-29T14:10:59;15.32;;;10.20;;
79670;SDS011;69137;50.878;8.050;2023-04-29T14:13:24;15.80;;;10.70;;
79670;SDS011;69137;50.878;8.050;2023-04-29T14:15:50;17.42;;;10.45;;
79670;SDS011;69137;50.878;8.050;2023-04-29T14:18:15;14.43;;;10.02;;
79670;SDS011;69137;50.878;8.050;2023-04-29T14:20:41;14.35;;;10.30;;
79670;SDS011;69137;50.878;8.050;2023-04-29T14:23:06;15.00;;;9.80;;
79670;SDS011;69137;50.878;8.050;2023-04-29T14:25:32;18.00;;;10.90;;
79670;SDS011;69137;50.878;8.050;2023-04-29T14:27:57;13.88;;;9.73;;
79670;SDS011;69137;50.878;8.050;2023-04-29T14:30:23;17.25;;;10.40;;
79670;SDS011;69137;50.878;8.050;2023-04-29T14:32:48;16.83;;;10.73;;
79670;SDS011;69137;50.878;8.050;2023-04-29T14:35:14;15.60;;;10.07;;
79670;SDS011;69137;50.878;8.050;2023-04-29T14:37:40;17.08;;;10.23;;
79670;SDS011;69137;50.878;8.050;2023-04-29T14:40:05;16.90;;;10.43;;
79670;SDS011;69137;50.878;8.050;2023-04-29T14:42:31;14.93;;;10.50;;
79670;SDS011;69137;50.878;8.050;2023-04-29T14:44:57;17.00;;;11.23;;
79670;SDS011;69137;50.878;8.050;2023-04-29T14:47:22;20.27;;;12.35;;
79670;SDS011;69137;50.878;8.050;2023-04-29T14:49:48;16.85;;;11.88;;
79670;SDS011;69137;50.878;8.050;2023-04-29T14:52:13;17.92;;;12.10;;
79670;SDS011;69137;50.878;8.050;2023-04-29T14:54:39;15.20;;;10.73;;
79670;SDS011;69137;50.878;8.050;2023-04-29T14:57:04;16.45;;;11.98;;
79670;SDS011;69137;50.878;8.050;2023-04-29T14:59:30;18.15;;;11.30;;
79670;SDS011;69137;50.878;8.050;2023-04-29T15:01:56;15.20;;;10.52;;
79670;SDS011;69137;50.878;8.050;2023-04-29T15:04:21;20.02;;;12.35;;
79670;SDS011;69137;50.878;8.050;2023-04-29T15:06:47;17.60;;;10.63;;
79670;SDS011;69137;50.878;8.050;2023-04-29T15:09:13;16.27;;;10.85;;